sensor_id;sensor_type;location;lat;lon;timestamp;pressure;altitude;pressure_sealevel;temperature;humidity
75594;BME280;64176;49.156;7.810;2022-12-18T00:00:04;100338.88;;;-9.54;82.19
75594;BME280;64176;49.156;7.810;2022-12-18T00:02:57;100332.69;;;-9.58;82.34
75594;BME280;64176;49.156;7.810;2022-12-18T00:05:49;100325.28;;;-9.74;81.85
75594;BME280;64176;49.156;7.810;2022-12-18T00:08:39;100328.00;;;-9.55;81.85
75594;BME280;64176;49.156;7.810;2022-12-18T00:11:26;100318.19;;;-9.78;82.58
75594;BME280;64176;49.156;7.810;2022-12-18T00:14:11;100329.47;;;-9.48;81.52
75594;BME280;64176;49.156;7.810;2022-12-18T00:16:56;100313.41;;;-9.59;81.18
75594;BME280;64176;49.156;7.810;2022-12-18T00:19:44;100334.78;;;-9.54;81.24
75594;BME280;64176;49.156;7.810;2022-12-18T00:22:28;100321.50;;;-9.62;81.33
75594;BME280;64176;49.156;7.810;2022-12-18T00:25:12;100335.72;;;-9.69;81.88
75594;BME280;64176;49.156;7.810;2022-12-18T00:27:58;100342.13;;;-9.80;81.95
75594;BME280;64176;49.156;7.810;2022-12-18T00:30:43;100334.25;;;-9.67;81.87
75594;BME280;64176;49.156;7.810;2022-12-18T00:33:30;100335.34;;;-9.57;81.07
75594;BME280;64176;49.156;7.810;2022-12-18T00:36:19;100354.66;;;-9.47;81.37
75594;BME280;64176;49.156;7.810;2022-12-18T00:39:06;100338.47;;;-9.50;81.69
75594;BME280;64176;49.156;7.810;2022-12-18T00:41:51;100343.53;;;-9.66;82.30
75594;BME280;64176;49.156;7.810;2022-12-18T00:44:53;100333.72;;;-9.56;82.19
75594;BME280;64176;49.156;7.810;2022-12-18T00:47:37;100323.75;;;-9.47;81.71
75594;BME280;64176;49.156;7.810;2022-12-18T00:50:22;100336.56;;;-9.53;82.05
75594;BME280;64176;49.156;7.810;2022-12-18T00:53:12;100338.22;;;-9.36;82.02
75594;BME280;64176;49.156;7.810;2022-12-18T00:55:56;100338.56;;;-9.58;81.58
75594;BME280;64176;49.156;7.810;2022-12-18T00:58:39;100342.19;;;-9.71;82.33
75594;BME280;64176;49.156;7.810;2022-12-18T01:01:23;100353.03;;;-9.46;81.76
75594;BME280;64176;49.156;7.810;2022-12-18T01:04:07;100351.47;;;-9.37;81.82
75594;BME280;64176;49.156;7.810;2022-12-18T01:06:51;100336.72;;;-9.51;81.66
75594;BME280;64176;49.156;7.810;2022-12-18T01:09:35;100346.59;;;-9.44;81.92
75594;BME280;64176;49.156;7.810;2022-12-18T01:12:19;100333.75;;;-9.47;81.61
75594;BME280;64176;49.156;7.810;2022-12-18T01:15:12;100337.94;;;-9.39;81.59
75594;BME280;64176;49.156;7.810;2022-12-18T01:17:57;100335.72;;;-9.36;81.89
75594;BME280;64176;49.156;7.810;2022-12-18T01:20:46;100339.25;;;-9.34;82.05
75594;BME280;64176;49.156;7.810;2022-12-18T01:23:34;100347.44;;;-9.52;82.50
75594;BME280;64176;49.156;7.810;2022-12-18T01:26:20;100324.63;;;-9.80;83.02
75594;BME280;64176;49.156;7.810;2022-12-18T01:29:05;100347.59;;;-9.51;83.05
75594;BME280;64176;49.156;7.810;2022-12-18T01:31:49;100337.72;;;-9.49;81.83
75594;BME280;64176;49.156;7.810;2022-12-18T01:34:35;100354.94;;;-9.52;82.16
75594;BME280;64176;49.156;7.810;2022-12-18T01:37:21;100346.28;;;-9.47;81.95
75594;BME280;64176;49.156;7.810;2022-12-18T01:40:08;100351.41;;;-9.54;82.12
75594;BME280;64176;49.156;7.810;2022-12-18T01:42:53;100350.03;;;-9.60;81.86
75594;BME280;64176;49.156;7.810;2022-12-18T01:45:37;100365.66;;;-9.62;82.21
75594;BME280;64176;49.156;7.810;2022-12-18T01:48:26;100354.28;;;-9.67;82.66
75594;BME280;64176;49.156;7.810;2022-12-18T01:51:13;100356.94;;;-9.66;82.72
75594;BME280;64176;49.156;7.810;2022-12-18T01:53:59;100352.47;;;-9.44;82.29
75594;BME280;64176;49.156;7.810;2022-12-18T01:56:43;100349.69;;;-9.38;82.12
75594;BME280;64176;49.156;7.810;2022-12-18T01:59:27;100343.25;;;-9.61;81.82
75594;BME280;64176;49.156;7.810;2022-12-18T02:02:14;100355.88;;;-9.68;82.22
75594;BME280;64176;49.156;7.810;2022-12-18T02:05:00;100359.50;;;-9.48;82.48
75594;BME280;64176;49.156;7.810;2022-12-18T02:16:59;100367.25;;;-9.30;82.38
75594;BME280;64176;49.156;7.810;2022-12-18T02:29:30;100346.34;;;-9.39;82.66
75594;BME280;64176;49.156;7.810;2022-12-18T02:32:36;100349.31;;;-9.26;82.47
75594;BME280;64176;49.156;7.810;2022-12-18T02:35:27;100343.31;;;-9.19;81.84
75594;BME280;64176;49.156;7.810;2022-12-18T02:38:16;100354.69;;;-9.38;82.40
75594;BME280;64176;49.156;7.810;2022-12-18T02:41:03;100358.84;;;-9.39;82.13
75594;BME280;64176;49.156;7.810;2022-12-18T02:44:00;100361.13;;;-9.49;82.53
75594;BME280;64176;49.156;7.810;2022-12-18T02:46:50;100363.06;;;-9.46;83.14
75594;BME280;64176;49.156;7.810;2022-12-18T03:05:12;100347.13;;;-9.56;82.57
75594;BME280;64176;49.156;7.810;2022-12-18T03:08:08;100337.94;;;-9.39;82.18
75594;BME280;64176;49.156;7.810;2022-12-18T03:11:02;100352.13;;;-9.80;82.98
75594;BME280;64176;49.156;7.810;2022-12-18T03:13:52;100356.72;;;-9.76;82.90
75594;BME280;64176;49.156;7.810;2022-12-18T03:16:44;100356.13;;;-9.49;83.10
75594;BME280;64176;49.156;7.810;2022-12-18T03:19:32;100358.78;;;-9.47;83.15
75594;BME280;64176;49.156;7.810;2022-12-18T03:22:23;100345.72;;;-9.69;82.73
75594;BME280;64176;49.156;7.810;2022-12-18T03:25:13;100339.84;;;-9.70;82.99
75594;BME280;64176;49.156;7.810;2022-12-18T03:28:01;100344.19;;;-9.84;83.92
75594;BME280;64176;49.156;7.810;2022-12-18T03:30:47;100330.88;;;-9.68;83.62
75594;BME280;64176;49.156;7.810;2022-12-18T03:33:39;100335.34;;;-9.57;82.77
75594;BME280;64176;49.156;7.810;2022-12-18T03:36:25;100331.22;;;-9.89;83.15
75594;BME280;64176;49.156;7.810;2022-12-18T03:39:12;100351.53;;;-9.86;83.18
75594;BME280;64176;49.156;7.810;2022-12-18T03:42:12;100331.59;;;-9.69;82.28
75594;BME280;64176;49.156;7.810;2022-12-18T03:45:32;100357.47;;;-9.77;82.19
75594;BME280;64176;49.156;7.810;2022-12-18T03:48:32;100349.81;;;-9.78;82.51
75594;BME280;64176;49.156;7.810;2022-12-18T03:54:26;100350.28;;;-9.74;82.71
75594;BME280;64176;49.156;7.810;2022-12-18T03:57:21;100318.81;;;-9.96;82.48
75594;BME280;64176;49.156;7.810;2022-12-18T04:00:13;100346.91;;;-9.74;81.64
75594;BME280;64176;49.156;7.810;2022-12-18T04:03:07;100339.38;;;-9.99;83.62
75594;BME280;64176;49.156;7.810;2022-12-18T04:06:00;100348.03;;;-9.79;82.86
75594;BME280;64176;49.156;7.810;2022-12-18T04:08:48;100352.69;;;-9.58;81.91
75594;BME280;64176;49.156;7.810;2022-12-18T04:11:42;100329.47;;;-9.57;81.23
75594;BME280;64176;49.156;7.810;2022-12-18T04:14:28;100335.81;;;-9.85;82.18
75594;BME280;64176;49.156;7.810;2022-12-18T04:17:20;100328.53;;;-9.90;82.78
75594;BME280;64176;49.156;7.810;2022-12-18T04:20:05;100326.00;;;-9.99;82.92
75594;BME280;64176;49.156;7.810;2022-12-18T04:22:53;100334.06;;;-9.77;83.09
75594;BME280;64176;49.156;7.810;2022-12-18T04:25:38;100337.81;;;-9.89;82.40
75594;BME280;64176;49.156;7.810;2022-12-18T04:28:25;100345.66;;;-9.86;83.06
75594;BME280;64176;49.156;7.810;2022-12-18T04:31:12;100340.69;;;-9.78;82.38
75594;BME280;64176;49.156;7.810;2022-12-18T04:33:56;100336.72;;;-9.76;81.61
75594;BME280;64176;49.156;7.810;2022-12-18T04:36:43;100346.03;;;-9.90;82.44
75594;BME280;64176;49.156;7.810;2022-12-18T04:39:32;100344.63;;;-10.04;82.33
75594;BME280;64176;49.156;7.810;2022-12-18T04:42:22;100345.88;;;-9.92;81.52
75594;BME280;64176;49.156;7.810;2022-12-18T04:45:10;100337.63;;;-9.75;81.30
75594;BME280;64176;49.156;7.810;2022-12-18T04:47:54;100341.09;;;-9.82;81.84
75594;BME280;64176;49.156;7.810;2022-12-18T04:50:40;100316.34;;;-10.20;82.81
75594;BME280;64176;49.156;7.810;2022-12-18T04:53:25;100350.72;;;-9.94;82.54
75594;BME280;64176;49.156;7.810;2022-12-18T04:56:11;100352.97;;;-9.88;82.45
75594;BME280;64176;49.156;7.810;2022-12-18T04:58:55;100341.50;;;-10.10;82.69
75594;BME280;64176;49.156;7.810;2022-12-18T05:01:39;100347.56;;;-10.08;83.16
75594;BME280;64176;49.156;7.810;2022-12-18T05:04:23;100345.06;;;-10.08;82.97
75594;BME280;64176;49.156;7.810;2022-12-18T05:07:09;100345.69;;;-10.02;82.73
75594;BME280;64176;49.156;7.810;2022-12-18T05:09:56;100345.94;;;-10.08;82.40
75594;BME280;64176;49.156;7.810;2022-12-18T05:12:40;100344.00;;;-9.95;83.26
75594;BME280;64176;49.156;7.810;2022-12-18T05:15:41;100346.16;;;-9.98;83.70
75594;BME280;64176;49.156;7.810;2022-12-18T05:18:28;100339.13;;;-9.93;83.73
75594;BME280;64176;49.156;7.810;2022-12-18T05:21:12;100348.66;;;-9.98;83.32
75594;BME280;64176;49.156;7.810;2022-12-18T05:23:56;100344.78;;;-10.03;83.22
75594;BME280;64176;49.156;7.810;2022-12-18T05:26:43;100355.59;;;-9.95;83.30
75594;BME280;64176;49.156;7.810;2022-12-18T05:29:29;100355.88;;;-9.92;83.55
75594;BME280;64176;49.156;7.810;2022-12-18T05:32:13;100348.53;;;-9.90;83.28
75594;BME280;64176;49.156;7.810;2022-12-18T05:34:57;100349.75;;;-9.87;82.90
75594;BME280;64176;49.156;7.810;2022-12-18T05:37:41;100353.72;;;-9.89;82.53
75594;BME280;64176;49.156;7.810;2022-12-18T05:40:25;100362.56;;;-10.08;82.87
75594;BME280;64176;49.156;7.810;2022-12-18T05:43:11;100358.34;;;-10.01;83.34
75594;BME280;64176;49.156;7.810;2022-12-18T05:45:56;100365.09;;;-9.84;82.42
75594;BME280;64176;49.156;7.810;2022-12-18T05:48:44;100362.22;;;-9.96;82.20
75594;BME280;64176;49.156;7.810;2022-12-18T05:51:30;100355.47;;;-10.12;82.19
75594;BME280;64176;49.156;7.810;2022-12-18T05:54:15;100371.91;;;-10.14;83.23
75594;BME280;64176;49.156;7.810;2022-12-18T05:56:59;100371.16;;;-9.98;83.70
75594;BME280;64176;49.156;7.810;2022-12-18T05:59:43;100368.13;;;-10.11;83.43
75594;BME280;64176;49.156;7.810;2022-12-18T06:02:27;100365.06;;;-10.08;83.16
75594;BME280;64176;49.156;7.810;2022-12-18T06:05:13;100384.09;;;-10.17;83.55
75594;BME280;64176;49.156;7.810;2022-12-18T06:07:59;100386.00;;;-9.99;82.98
75594;BME280;64176;49.156;7.810;2022-12-18T06:10:50;100384.78;;;-10.03;83.55
75594;BME280;64176;49.156;7.810;2022-12-18T06:13:35;100382.38;;;-10.18;83.85
75594;BME280;64176;49.156;7.810;2022-12-18T06:16:21;100393.38;;;-10.16;84.15
75594;BME280;64176;49.156;7.810;2022-12-18T06:19:05;100400.59;;;-9.95;83.72
75594;BME280;64176;49.156;7.810;2022-12-18T06:21:52;100393.88;;;-9.87;83.17
75594;BME280;64176;49.156;7.810;2022-12-18T06:24:36;100407.88;;;-9.81;82.93
75594;BME280;64176;49.156;7.810;2022-12-18T06:27:23;100413.31;;;-10.25;82.94
75594;BME280;64176;49.156;7.810;2022-12-18T06:30:10;100410.75;;;-10.18;83.40
75594;BME280;64176;49.156;7.810;2022-12-18T06:32:54;100412.38;;;-10.10;83.73
75594;BME280;64176;49.156;7.810;2022-12-18T06:35:40;100416.56;;;-10.02;83.83
75594;BME280;64176;49.156;7.810;2022-12-18T06:38:24;100424.09;;;-9.93;83.00
75594;BME280;64176;49.156;7.810;2022-12-18T06:41:10;100401.31;;;-9.96;82.67
75594;BME280;64176;49.156;7.810;2022-12-18T06:43:54;100419.44;;;-9.90;81.74
75594;BME280;64176;49.156;7.810;2022-12-18T06:46:39;100424.63;;;-10.04;83.05
75594;BME280;64176;49.156;7.810;2022-12-18T06:49:27;100417.84;;;-10.29;83.17
75594;BME280;64176;49.156;7.810;2022-12-18T06:52:17;100419.94;;;-10.01;82.90
75594;BME280;64176;49.156;7.810;2022-12-18T06:55:01;100428.22;;;-9.94;82.97
75594;BME280;64176;49.156;7.810;2022-12-18T06:57:45;100424.31;;;-9.83;82.62
75594;BME280;64176;49.156;7.810;2022-12-18T07:00:31;100426.88;;;-9.99;82.76
75594;BME280;64176;49.156;7.810;2022-12-18T07:03:15;100426.31;;;-9.96;82.80
75594;BME280;64176;49.156;7.810;2022-12-18T07:05:59;100426.16;;;-10.13;83.43
75594;BME280;64176;49.156;7.810;2022-12-18T07:08:44;100419.00;;;-10.10;82.42
75594;BME280;64176;49.156;7.810;2022-12-18T07:11:28;100414.38;;;-10.14;83.01
75594;BME280;64176;49.156;7.810;2022-12-18T07:14:17;100423.09;;;-9.95;83.86
75594;BME280;64176;49.156;7.810;2022-12-18T07:17:01;100409.50;;;-9.81;82.78
75594;BME280;64176;49.156;7.810;2022-12-18T07:19:45;100403.09;;;-9.95;83.89
75594;BME280;64176;49.156;7.810;2022-12-18T07:22:32;100424.31;;;-9.83;84.17
75594;BME280;64176;49.156;7.810;2022-12-18T07:25:16;100415.78;;;-9.36;85.13
75594;BME280;64176;49.156;7.810;2022-12-18T07:28:02;100415.38;;;-9.32;83.98
75594;BME280;64176;49.156;7.810;2022-12-18T07:30:47;100424.91;;;-9.04;83.97
75594;BME280;64176;49.156;7.810;2022-12-18T07:33:32;100426.25;;;-9.07;84.57
75594;BME280;64176;49.156;7.810;2022-12-18T07:36:22;100438.81;;;-8.90;84.58
75594;BME280;64176;49.156;7.810;2022-12-18T07:39:06;100441.56;;;-8.63;85.46
75594;BME280;64176;49.156;7.810;2022-12-18T07:41:50;100443.84;;;-8.40;86.65
75594;BME280;64176;49.156;7.810;2022-12-18T07:44:56;100446.91;;;-8.25;85.52
75594;BME280;64176;49.156;7.810;2022-12-18T07:47:40;100455.91;;;-8.19;86.55
75594;BME280;64176;49.156;7.810;2022-12-18T07:50:27;100454.16;;;-7.94;86.18
75594;BME280;64176;49.156;7.810;2022-12-18T07:53:11;100463.59;;;-7.74;86.31
75594;BME280;64176;49.156;7.810;2022-12-18T07:55:59;100453.41;;;-7.67;86.40
75594;BME280;64176;49.156;7.810;2022-12-18T07:58:49;100451.94;;;-7.65;85.72
75594;BME280;64176;49.156;7.810;2022-12-18T08:01:33;100468.16;;;-7.61;86.34
75594;BME280;64176;49.156;7.810;2022-12-18T08:04:20;100466.41;;;-7.62;86.17
75594;BME280;64176;49.156;7.810;2022-12-18T08:07:04;100468.44;;;-7.50;86.53
75594;BME280;64176;49.156;7.810;2022-12-18T08:09:50;100470.66;;;-7.44;86.15
75594;BME280;64176;49.156;7.810;2022-12-18T08:12:37;100463.41;;;-7.41;85.80
75594;BME280;64176;49.156;7.810;2022-12-18T08:15:23;100456.91;;;-7.39;85.36
75594;BME280;64176;49.156;7.810;2022-12-18T08:18:10;100461.91;;;-7.30;86.08
75594;BME280;64176;49.156;7.810;2022-12-18T08:20:54;100456.88;;;-7.22;85.84
75594;BME280;64176;49.156;7.810;2022-12-18T08:23:43;100433.81;;;-7.26;85.67
75594;BME280;64176;49.156;7.810;2022-12-18T08:26:31;100430.72;;;-7.24;85.50
75594;BME280;64176;49.156;7.810;2022-12-18T08:29:17;100444.28;;;-7.13;85.62
75594;BME280;64176;49.156;7.810;2022-12-18T08:32:01;100445.59;;;-7.08;85.21
75594;BME280;64176;49.156;7.810;2022-12-18T08:34:48;100430.53;;;-7.08;85.32
75594;BME280;64176;49.156;7.810;2022-12-18T08:37:32;100417.69;;;-7.11;85.12
75594;BME280;64176;49.156;7.810;2022-12-18T08:40:20;100413.06;;;-7.07;85.28
75594;BME280;64176;49.156;7.810;2022-12-18T08:43:04;100401.53;;;-7.05;84.57
75594;BME280;64176;49.156;7.810;2022-12-18T08:46:07;100398.59;;;-7.01;85.10
75594;BME280;64176;49.156;7.810;2022-12-18T08:48:52;100403.47;;;-7.02;85.49
75594;BME280;64176;49.156;7.810;2022-12-18T08:51:40;100394.16;;;-7.03;84.99
75594;BME280;64176;49.156;7.810;2022-12-18T08:54:24;100408.34;;;-7.04;84.99
75594;BME280;64176;49.156;7.810;2022-12-18T08:57:08;100421.88;;;-6.93;84.28
75594;BME280;64176;49.156;7.810;2022-12-18T08:59:52;100421.00;;;-6.93;84.15
75594;BME280;64176;49.156;7.810;2022-12-18T09:02:36;100423.94;;;-6.89;85.02
75594;BME280;64176;49.156;7.810;2022-12-18T09:05:22;100431.50;;;-6.89;84.63
75594;BME280;64176;49.156;7.810;2022-12-18T09:08:06;100431.78;;;-6.94;84.00
75594;BME280;64176;49.156;7.810;2022-12-18T09:10:50;100444.50;;;-6.93;84.07
75594;BME280;64176;49.156;7.810;2022-12-18T09:13:37;100449.78;;;-6.81;84.69
75594;BME280;64176;49.156;7.810;2022-12-18T09:16:22;100462.19;;;-6.83;83.86
75594;BME280;64176;49.156;7.810;2022-12-18T09:19:09;100463.41;;;-6.88;84.39
75594;BME280;64176;49.156;7.810;2022-12-18T09:21:56;100453.50;;;-6.86;84.20
75594;BME280;64176;49.156;7.810;2022-12-18T09:24:42;100459.13;;;-6.89;83.91
75594;BME280;64176;49.156;7.810;2022-12-18T09:27:29;100458.06;;;-6.82;83.69
75594;BME280;64176;49.156;7.810;2022-12-18T09:30:13;100455.53;;;-6.82;83.99
75594;BME280;64176;49.156;7.810;2022-12-18T09:32:59;100470.16;;;-6.78;84.00
75594;BME280;64176;49.156;7.810;2022-12-18T09:35:44;100474.22;;;-6.62;83.57
75594;BME280;64176;49.156;7.810;2022-12-18T09:38:28;100476.72;;;-6.53;82.74
75594;BME280;64176;49.156;7.810;2022-12-18T09:47:17;100487.41;;;-6.37;82.37
75594;BME280;64176;49.156;7.810;2022-12-18T09:50:05;100479.25;;;-6.34;82.51
75594;BME280;64176;49.156;7.810;2022-12-18T09:52:59;100487.25;;;-6.38;82.75
75594;BME280;64176;49.156;7.810;2022-12-18T09:55:48;100470.97;;;-6.33;82.69
75594;BME280;64176;49.156;7.810;2022-12-18T09:58:47;100474.44;;;-6.41;82.82
75594;BME280;64176;49.156;7.810;2022-12-18T10:01:35;100482.22;;;-6.30;83.08
75594;BME280;64176;49.156;7.810;2022-12-18T10:04:19;100475.97;;;-6.52;82.61
75594;BME280;64176;49.156;7.810;2022-12-18T10:07:09;100474.22;;;-6.62;82.65
75594;BME280;64176;49.156;7.810;2022-12-18T10:10:13;100469.28;;;-6.51;82.94
75594;BME280;64176;49.156;7.810;2022-12-18T10:22:25;100464.91;;;-6.35;82.54
75594;BME280;64176;49.156;7.810;2022-12-18T10:25:35;100460.69;;;-6.45;83.20
75594;BME280;64176;49.156;7.810;2022-12-18T10:28:20;100459.75;;;-6.37;82.46
75594;BME280;64176;49.156;7.810;2022-12-18T10:31:06;100451.69;;;-6.24;82.72
75594;BME280;64176;49.156;7.810;2022-12-18T10:33:53;100443.53;;;-6.21;82.28
75594;BME280;64176;49.156;7.810;2022-12-18T10:36:41;100441.56;;;-5.97;82.41
75594;BME280;64176;49.156;7.810;2022-12-18T10:39:25;100436.81;;;-5.83;81.69
75594;BME280;64176;49.156;7.810;2022-12-18T10:42:19;100437.47;;;-5.86;82.13
75594;BME280;64176;49.156;7.810;2022-12-18T10:45:16;100439.19;;;-5.85;82.29
75594;BME280;64176;49.156;7.810;2022-12-18T10:48:19;100448.84;;;-5.71;82.31
75594;BME280;64176;49.156;7.810;2022-12-18T10:51:05;100444.38;;;-5.83;82.32
75594;BME280;64176;49.156;7.810;2022-12-18T10:54:04;100442.56;;;-5.76;82.04
75594;BME280;64176;49.156;7.810;2022-12-18T10:56:51;100438.03;;;-5.70;82.08
75594;BME280;64176;49.156;7.810;2022-12-18T10:59:57;100430.97;;;-5.74;81.70
75594;BME280;64176;49.156;7.810;2022-12-18T11:02:44;100437.28;;;-5.69;81.73
75594;BME280;64176;49.156;7.810;2022-12-18T11:08:21;100425.44;;;-5.70;81.77
75594;BME280;64176;49.156;7.810;2022-12-18T11:11:22;100419.19;;;-5.65;81.50
75594;BME280;64176;49.156;7.810;2022-12-18T11:14:19;100424.47;;;-5.43;81.31
75594;BME280;64176;49.156;7.810;2022-12-18T11:20:33;100423.44;;;-5.45;81.59
75594;BME280;64176;49.156;7.810;2022-12-18T11:23:18;100423.59;;;-5.43;81.36
75594;BME280;64176;49.156;7.810;2022-12-18T11:26:04;100397.53;;;-5.34;81.24
75594;BME280;64176;49.156;7.810;2022-12-18T11:29:08;100400.84;;;-5.25;80.42
75594;BME280;64176;49.156;7.810;2022-12-18T11:38:21;100402.41;;;-5.06;80.80
75594;BME280;64176;49.156;7.810;2022-12-18T11:41:24;100400.28;;;-5.02;80.19
75594;BME280;64176;49.156;7.810;2022-12-18T11:44:52;100398.03;;;-4.89;81.38
75594;BME280;64176;49.156;7.810;2022-12-18T11:51:00;100386.19;;;-4.90;79.74
75594;BME280;64176;49.156;7.810;2022-12-18T11:53:46;100387.56;;;-4.83;80.54
75594;BME280;64176;49.156;7.810;2022-12-18T11:56:43;100389.22;;;-4.84;79.82
75594;BME280;64176;49.156;7.810;2022-12-18T12:08:43;100374.84;;;-4.85;79.47
75594;BME280;64176;49.156;7.810;2022-12-18T12:11:53;100360.09;;;-4.80;79.44
75594;BME280;64176;49.156;7.810;2022-12-18T12:14:58;100377.50;;;-4.53;78.88
75594;BME280;64176;49.156;7.810;2022-12-18T12:17:57;100374.63;;;-4.67;79.31
75594;BME280;64176;49.156;7.810;2022-12-18T12:21:16;100387.50;;;-4.54;78.56
75594;BME280;64176;49.156;7.810;2022-12-18T12:30:09;100374.09;;;-4.33;78.66
75594;BME280;64176;49.156;7.810;2022-12-18T12:39:01;100328.16;;;-4.29;78.31
75594;BME280;64176;49.156;7.810;2022-12-18T12:41:50;100343.16;;;-4.30;78.03
75594;BME280;64176;49.156;7.810;2022-12-18T12:44:58;100347.19;;;-4.12;78.15
75594;BME280;64176;49.156;7.810;2022-12-18T12:47:48;100318.94;;;-4.28;78.58
75594;BME280;64176;49.156;7.810;2022-12-18T12:50:36;100339.53;;;-4.24;78.28
75594;BME280;64176;49.156;7.810;2022-12-18T12:53:26;100332.84;;;-4.23;77.85
75594;BME280;64176;49.156;7.810;2022-12-18T12:56:16;100342.03;;;-4.24;78.16
75594;BME280;64176;49.156;7.810;2022-12-18T12:59:10;100348.13;;;-4.32;78.72
75594;BME280;64176;49.156;7.810;2022-12-18T13:02:10;100347.47;;;-4.40;78.63
75594;BME280;64176;49.156;7.810;2022-12-18T13:05:11;100345.19;;;-4.26;78.67
75594;BME280;64176;49.156;7.810;2022-12-18T13:08:10;100327.66;;;-4.25;78.73
75594;BME280;64176;49.156;7.810;2022-12-18T13:10:55;100330.19;;;-4.35;79.18
75594;BME280;64176;49.156;7.810;2022-12-18T13:14:00;100329.81;;;-4.29;79.16
75594;BME280;64176;49.156;7.810;2022-12-18T13:16:44;100326.53;;;-4.28;78.72
75594;BME280;64176;49.156;7.810;2022-12-18T13:19:28;100316.31;;;-4.30;78.65
75594;BME280;64176;49.156;7.810;2022-12-18T13:22:35;100321.75;;;-4.35;78.56
75594;BME280;64176;49.156;7.810;2022-12-18T13:28:14;100326.41;;;-4.40;79.25
75594;BME280;64176;49.156;7.810;2022-12-18T13:31:02;100333.47;;;-4.36;78.50
75594;BME280;64176;49.156;7.810;2022-12-18T13:33:46;100317.72;;;-4.33;79.35
75594;BME280;64176;49.156;7.810;2022-12-18T13:36:32;100335.53;;;-4.42;78.97
75594;BME280;64176;49.156;7.810;2022-12-18T13:44:50;100324.91;;;-4.48;79.43
75594;BME280;64176;49.156;7.810;2022-12-18T13:47:37;100331.31;;;-4.42;79.09
75594;BME280;64176;49.156;7.810;2022-12-18T13:50:25;100330.22;;;-4.45;78.90
75594;BME280;64176;49.156;7.810;2022-12-18T13:53:21;100322.25;;;-4.50;78.96
75594;BME280;64176;49.156;7.810;2022-12-18T13:56:07;100336.38;;;-4.52;79.74
75594;BME280;64176;49.156;7.810;2022-12-18T14:02:11;100325.81;;;-4.58;79.74
75594;BME280;64176;49.156;7.810;2022-12-18T14:04:57;100319.91;;;-4.68;80.34
75594;BME280;64176;49.156;7.810;2022-12-18T14:07:41;100327.84;;;-4.54;79.70
75594;BME280;64176;49.156;7.810;2022-12-18T14:10:25;100328.22;;;-4.59;79.84
75594;BME280;64176;49.156;7.810;2022-12-18T14:13:10;100336.16;;;-4.55;80.09
75594;BME280;64176;49.156;7.810;2022-12-18T14:16:00;100348.50;;;-4.68;79.93
75594;BME280;64176;49.156;7.810;2022-12-18T14:18:51;100335.50;;;-4.72;79.73
75594;BME280;64176;49.156;7.810;2022-12-18T14:21:38;100331.63;;;-4.69;80.65
75594;BME280;64176;49.156;7.810;2022-12-18T14:24:27;100340.34;;;-4.75;79.25
75594;BME280;64176;49.156;7.810;2022-12-18T14:27:24;100333.75;;;-4.73;79.99
75594;BME280;64176;49.156;7.810;2022-12-18T14:30:31;100333.38;;;-4.68;80.09
75594;BME280;64176;49.156;7.810;2022-12-18T14:33:23;100339.69;;;-4.73;80.19
75594;BME280;64176;49.156;7.810;2022-12-18T14:36:15;100342.31;;;-4.61;79.68
75594;BME280;64176;49.156;7.810;2022-12-18T14:39:03;100332.38;;;-4.60;80.15
75594;BME280;64176;49.156;7.810;2022-12-18T14:41:52;100332.50;;;-4.68;79.69
75594;BME280;64176;49.156;7.810;2022-12-18T14:44:36;100323.56;;;-4.75;80.34
75594;BME280;64176;49.156;7.810;2022-12-18T14:47:23;100324.81;;;-4.70;80.00
75594;BME280;64176;49.156;7.810;2022-12-18T14:50:13;100328.47;;;-4.66;80.00
75594;BME280;64176;49.156;7.810;2022-12-18T14:53:00;100332.38;;;-4.70;80.08
75594;BME280;64176;49.156;7.810;2022-12-18T14:55:47;100322.78;;;-4.74;79.73
75594;BME280;64176;49.156;7.810;2022-12-18T14:58:34;100323.53;;;-4.85;80.23
75594;BME280;64176;49.156;7.810;2022-12-18T15:01:23;100330.47;;;-4.83;80.25
75594;BME280;64176;49.156;7.810;2022-12-18T15:04:35;100327.59;;;-4.87;80.71
75594;BME280;64176;49.156;7.810;2022-12-18T15:07:21;100327.72;;;-4.75;80.35
75594;BME280;64176;49.156;7.810;2022-12-18T15:10:16;100322.28;;;-4.80;80.59
75594;BME280;64176;49.156;7.810;2022-12-18T15:15:49;100327.59;;;-4.87;81.31
75594;BME280;64176;49.156;7.810;2022-12-18T15:18:41;100330.47;;;-4.83;81.02
75594;BME280;64176;49.156;7.810;2022-12-18T15:21:28;100321.53;;;-4.79;80.63
75594;BME280;64176;49.156;7.810;2022-12-18T15:24:20;100332.63;;;-4.87;81.25
75594;BME280;64176;49.156;7.810;2022-12-18T15:27:29;100329.09;;;-4.79;81.38
75594;BME280;64176;49.156;7.810;2022-12-18T15:33:23;100322.28;;;-4.90;81.44
75594;BME280;64176;49.156;7.810;2022-12-18T15:36:10;100324.94;;;-4.99;81.65
75594;BME280;64176;49.156;7.810;2022-12-18T15:38:56;100317.88;;;-5.03;81.37
75594;BME280;64176;49.156;7.810;2022-12-18T15:41:41;100327.81;;;-5.04;82.21
75594;BME280;64176;49.156;7.810;2022-12-18T15:44:49;100330.34;;;-4.94;81.16
75594;BME280;64176;49.156;7.810;2022-12-18T15:47:34;100321.13;;;-5.14;82.59
75594;BME280;64176;49.156;7.810;2022-12-18T15:50:18;100328.06;;;-5.01;82.49
75594;BME280;64176;49.156;7.810;2022-12-18T15:53:05;100330.47;;;-4.93;81.48
75594;BME280;64176;49.156;7.810;2022-12-18T15:55:49;100324.94;;;-4.89;81.59
75594;BME280;64176;49.156;7.810;2022-12-18T15:58:51;100317.13;;;-4.82;81.84
75594;BME280;64176;49.156;7.810;2022-12-18T16:01:39;100322.78;;;-5.04;82.48
75594;BME280;64176;49.156;7.810;2022-12-18T16:04:23;100322.41;;;-4.99;82.13
75594;BME280;64176;49.156;7.810;2022-12-18T16:07:09;100325.56;;;-4.91;81.89
75594;BME280;64176;49.156;7.810;2022-12-18T16:09:53;100322.91;;;-4.93;82.28
75594;BME280;64176;49.156;7.810;2022-12-18T16:12:37;100330.19;;;-5.16;83.22
75594;BME280;64176;49.156;7.810;2022-12-18T16:15:24;100330.94;;;-5.07;83.12
75594;BME280;64176;49.156;7.810;2022-12-18T16:18:10;100331.47;;;-5.01;83.20
75594;BME280;64176;49.156;7.810;2022-12-18T16:20:54;100327.19;;;-5.02;82.69
75594;BME280;64176;49.156;7.810;2022-12-18T16:23:38;100321.75;;;-4.96;82.49
75594;BME280;64176;49.156;7.810;2022-12-18T16:26:25;100322.56;;;-4.97;82.19
75594;BME280;64176;49.156;7.810;2022-12-18T16:29:11;100320.88;;;-4.97;82.66